Time;durP1;ratioP1;P1;durP2;ratioP2;P2;SDS_P1;SDS_P2;PMS_P1;PMS_P2;Temp;Humidity;BMP_temperature;BMP_pressure;BME280_temperature;BME280_humidity;BME280_pressure;Samples;Min_cycle;Max_cycle;Signal;HPM_P1;HPM_P2
2023/04/13 00:01:15;;;;;;;;;;;6.60;99.90;;;;;;5047532;28;19925;-66
2023/04/13 00:03:47;;;;;;;;;;;6.60;99.90;;;;;;5042531;28;19921;-66
2023/04/13 00:06:19;;;;;;;;;;;6.50;99.90;;;;;;5028948;28;20316;-65
2023/04/13 00:08:53;;;;;;;;;;;6.60;99.90;;;;;;5047604;28;19921;-65
2023/04/13 00:11:20;;;;;;;;;;;6.60;99.90;;;;;;5045398;28;19925;-66
2023/04/13 00:13:47;;;;;;;;;;;6.60;99.90;;;;;;5033853;28;19978;-65
2023/04/13 00:16:19;;;;;;;;;;;6.60;99.90;;;;;;5049357;28;19974;-65
2023/04/13 00:18:51;;;;;;;;;;;6.50;99.90;;;;;;5047443;28;19924;-65
2023/04/13 00:21:24;;;;;;;;;;;6.60;99.90;;;;;;5049281;28;19921;-65
2023/04/13 00:23:56;;;;;;;;;;;6.60;99.90;;;;;;5031970;28;20395;-65
2023/04/13 00:26:28;;;;;;;;;;;6.60;99.90;;;;;;5046214;28;19921;-65
2023/04/13 00:28:59;;;;;;;;;;;6.60;99.90;;;;;;5031871;28;19925;-65
2023/04/13 00:31:32;;;;;;;;;;;6.60;99.90;;;;;;5031287;28;19920;-65
2023/04/13 00:34:01;;;;;;;;;;;6.60;99.90;;;;;;5028091;28;19983;-65
2023/04/13 00:36:33;;;;;;;;;;;6.50;99.90;;;;;;5032497;28;19928;-65
2023/04/13 00:39:05;;;;;;;;;;;6.50;99.90;;;;;;5028776;28;19925;-65
2023/04/13 00:41:36;;;;;;;;;;;6.50;99.90;;;;;;5033895;28;19929;-65
2023/04/13 00:44:08;;;;;;;;;;;6.50;99.90;;;;;;5030569;28;20799;-65
2023/04/13 00:46:41;;;;;;;;;;;6.50;99.90;;;;;;5032440;28;20340;-65
2023/04/13 00:49:07;;;;;;;;;;;6.50;99.90;;;;;;5032832;28;19921;-65
2023/04/13 00:51:40;;;;;;;;;;;6.40;99.90;;;;;;5031031;28;19943;-65
2023/04/13 00:54:07;;;;;;;;;;;6.40;99.90;;;;;;5033354;28;19924;-65
2023/04/13 00:56:41;;;;;;;;;;;6.40;99.90;;;;;;5046085;28;19940;-65
2023/04/13 00:59:13;;;;;;;;;;;6.40;99.90;;;;;;5028982;28;19924;-65
2023/04/13 01:01:45;;;;;;;;;;;6.30;99.90;;;;;;5029803;28;19925;-65
2023/04/13 01:04:18;;;;;;;;;;;6.30;99.90;;;;;;5030088;22;20392;-63
2023/04/13 01:06:52;;;;;;;;;;;6.30;99.90;;;;;;4990331;28;19960;-63
2023/04/13 01:09:23;;;;;;;;;;;6.30;99.90;;;;;;5003848;28;19936;-63
2023/04/13 01:11:59;;;;;;;;;;;6.20;99.90;;;;;;5025367;28;19952;-63
2023/04/13 01:14:35;;;;;;;;;;;6.20;99.90;;;;;;5010401;28;19920;-63
2023/04/13 01:17:20;;;;;;;;;;;6.20;99.90;;;;;;5023502;28;20023;-63
2023/04/13 01:19:58;;;;;;;;;;;6.10;99.90;;;;;;5024054;28;19981;-63
2023/04/13 01:22:32;;;;;;;;;;;6.10;99.90;;;;;;5026074;28;19920;-63
2023/04/13 01:25:09;;;;;;;;;;;6.10;99.90;;;;;;5024954;28;19988;-63
2023/04/13 01:27:46;;;;;;;;;;;6.00;99.90;;;;;;5011239;28;19926;-63
2023/04/13 01:30:23;;;;;;;;;;;6.00;99.90;;;;;;5024465;28;20304;-64
2023/04/13 01:32:55;;;;;;;;;;;5.90;99.90;;;;;;5010141;28;19921;-63
2023/04/13 01:35:28;;;;;;;;;;;5.90;99.90;;;;;;5027822;28;19921;-63
2023/04/13 01:38:01;;;;;;;;;;;5.90;99.90;;;;;;5027946;28;19927;-63
2023/04/13 01:40:35;;;;;;;;;;;5.80;99.90;;;;;;5025757;28;19968;-63
2023/04/13 01:43:09;;;;;;;;;;;5.80;99.90;;;;;;5010024;28;19921;-63
2023/04/13 01:46:03;;;;;;;;;;;5.70;99.90;;;;;;5025556;28;19929;-63
2023/04/13 01:48:36;;;;;;;;;;;5.70;99.90;;;;;;5027473;28;20252;-63
2023/04/13 01:51:29;;;;;;;;;;;5.70;99.90;;;;;;5009691;28;19925;-63
2023/04/13 01:54:11;;;;;;;;;;;5.60;99.90;;;;;;5038474;28;20464;-63
2023/04/13 01:56:45;;;;;;;;;;;5.60;99.90;;;;;;5027922;28;19925;-63
2023/04/13 01:59:12;;;;;;;;;;;5.60;99.90;;;;;;5026479;28;19929;-63
2023/04/13 02:01:44;;;;;;;;;;;5.60;99.90;;;;;;5021772;28;19929;-63
2023/04/13 02:04:12;;;;;;;;;;;5.60;99.90;;;;;;5031133;28;20621;-64
2023/04/13 02:06:45;;;;;;;;;;;5.60;99.90;;;;;;5026360;28;19925;-64
2023/04/13 02:09:22;;;;;;;;;;;5.60;99.90;;;;;;5033398;28;19935;-63
2023/04/13 02:11:54;;;;;;;;;;;5.60;99.90;;;;;;5013750;28;20376;-63
2023/04/13 02:14:26;;;;;;;;;;;5.60;99.90;;;;;;5033979;28;20011;-63
2023/04/13 02:16:59;;;;;;;;;;;5.60;99.90;;;;;;5032785;28;19925;-63
2023/04/13 02:19:31;;;;;;;;;;;5.50;99.90;;;;;;5032157;28;19921;-63
2023/04/13 02:22:03;;;;;;;;;;;5.40;99.90;;;;;;5012257;28;20419;-63
2023/04/13 02:24:35;;;;;;;;;;;5.40;99.90;;;;;;5034149;28;19929;-63
2023/04/13 02:27:06;;;;;;;;;;;5.40;99.90;;;;;;5029084;28;19966;-63
2023/04/13 02:29:33;;;;;;;;;;;5.40;99.90;;;;;;5047211;28;19999;-63
2023/04/13 02:32:05;;;;;;;;;;;5.40;99.90;;;;;;5034426;28;19929;-63
2023/04/13 02:34:37;;;;;;;;;;;5.40;99.90;;;;;;5018805;28;19925;-63
2023/04/13 02:37:10;;;;;;;;;;;5.40;99.90;;;;;;5048187;28;20475;-63
2023/04/13 02:39:42;;;;;;;;;;;5.40;99.90;;;;;;5034200;28;19929;-63
2023/04/13 02:42:15;;;;;;;;;;;5.40;99.90;;;;;;5028628;28;19935;-63
2023/04/13 02:44:42;;;;;;;;;;;5.40;99.90;;;;;;5043855;28;19983;-63
2023/04/13 02:47:09;;;;;;;;;;;5.40;99.90;;;;;;5034677;28;19921;-63
2023/04/13 02:49:41;;;;;;;;;;;5.40;99.90;;;;;;5045619;28;19954;-63
2023/04/13 02:52:26;;;;;;;;;;;5.40;99.90;;;;;;5045766;28;20019;-63
2023/04/13 02:54:58;;;;;;;;;;;5.40;99.90;;;;;;5032967;28;19928;-63
2023/04/13 02:57:42;;;;;;;;;;;5.40;99.90;;;;;;5029498;28;19921;-63
2023/04/13 03:00:14;;;;;;;;;;;5.40;99.90;;;;;;5033373;28;19921;-63
2023/04/13 03:02:55;;;;;;;;;;;5.40;99.90;;;;;;5025309;28;20376;-64
2023/04/13 03:05:31;;;;;;;;;;;5.40;99.90;;;;;;5029136;28;20384;-63
2023/04/13 03:07:58;;;;;;;;;;;5.40;99.90;;;;;;5032752;28;19974;-63
2023/04/13 03:10:30;;;;;;;;;;;5.40;99.90;;;;;;5031150;28;19924;-63
2023/04/13 03:12:59;;;;;;;;;;;5.40;99.90;;;;;;5032945;28;19924;-63
2023/04/13 03:15:31;;;;;;;;;;;5.40;99.90;;;;;;5028070;28;19925;-63
2023/04/13 03:17:58;;;;;;;;;;;5.40;99.90;;;;;;5032628;28;19924;-64
2023/04/13 03:20:31;;;;;;;;;;;5.40;99.90;;;;;;5033001;28;19928;-64
2023/04/13 03:23:05;;;;;;;;;;;5.40;99.90;;;;;;5025704;28;20041;-63
2023/04/13 03:25:38;;;;;;;;;;;5.40;99.90;;;;;;5032280;28;20016;-64
2023/04/13 03:28:10;;;;;;;;;;;5.40;99.90;;;;;;5030806;28;19925;-63
2023/04/13 03:30:44;;;;;;;;;;;5.40;99.90;;;;;;5023567;28;20003;-63
2023/04/13 03:33:15;;;;;;;;;;;5.50;99.90;;;;;;5048800;28;19924;-63
2023/04/13 03:35:47;;;;;;;;;;;5.50;99.90;;;;;;5024585;28;19925;-64
2023/04/13 03:38:25;;;;;;;;;;;5.40;99.90;;;;;;5028118;28;20429;-63
2023/04/13 03:40:57;;;;;;;;;;;5.40;99.90;;;;;;5044199;28;19921;-64
2023/04/13 03:43:31;;;;;;;;;;;5.50;99.90;;;;;;5032991;28;20387;-63
2023/04/13 03:46:07;;;;;;;;;;;5.50;99.90;;;;;;5024359;28;20380;-63
2023/04/13 03:48:40;;;;;;;;;;;5.50;99.90;;;;;;5015333;28;19921;-63
2023/04/13 03:51:17;;;;;;;;;;;5.50;99.90;;;;;;5032609;28;20014;-63
2023/04/13 03:53:51;;;;;;;;;;;5.50;99.90;;;;;;5032641;28;19931;-63
2023/04/13 03:56:25;;;;;;;;;;;5.40;99.90;;;;;;5042835;28;19982;-63
2023/04/13 03:58:57;;;;;;;;;;;5.40;99.90;;;;;;5029475;28;20066;-63
2023/04/13 04:01:29;;;;;;;;;;;5.50;99.90;;;;;;5028378;28;19924;-63
2023/04/13 04:04:01;;;;;;;;;;;5.50;99.90;;;;;;5016793;28;19931;-63
2023/04/13 04:06:32;;;;;;;;;;;5.50;99.90;;;;;;5032481;28;19920;-63
2023/04/13 04:09:12;;;;;;;;;;;5.50;99.90;;;;;;5043411;28;20405;-63
2023/04/13 04:11:45;;;;;;;;;;;5.50;99.90;;;;;;5024719;28;20019;-63
2023/04/13 04:14:25;;;;;;;;;;;5.50;99.90;;;;;;5012522;28;19951;-64
2023/04/13 04:17:08;;;;;;;;;;;5.50;99.90;;;;;;5033292;28;19931;-63
2023/04/13 04:19:40;;;;;;;;;;;5.40;99.90;;;;;;5012928;28;20391;-63
2023/04/13 04:22:12;;;;;;;;;;;5.40;99.90;;;;;;5031899;28;19929;-63
2023/04/13 04:24:44;;;;;;;;;;;5.40;99.90;;;;;;5014077;28;19943;-63
2023/04/13 04:27:16;;;;;;;;;;;5.40;99.90;;;;;;5027376;28;19921;-63
2023/04/13 04:29:49;;;;;;;;;;;5.40;99.90;;;;;;5031428;28;20040;-63
2023/04/13 04:32:28;;;;;;;;;;;5.40;99.90;;;;;;5026039;28;20015;-63
2023/04/13 04:35:03;;;;;;;;;;;5.40;99.90;;;;;;5033059;28;20376;-63
2023/04/13 04:37:41;;;;;;;;;;;5.40;99.90;;;;;;5026116;28;19956;-63
2023/04/13 04:40:15;;;;;;;;;;;5.30;99.90;;;;;;5042204;28;20404;-63
2023/04/13 04:42:49;;;;;;;;;;;5.30;99.90;;;;;;5025689;28;20016;-63
2023/04/13 04:45:31;;;;;;;;;;;5.30;99.90;;;;;;5030570;28;19920;-63
2023/04/13 04:48:06;;;;;;;;;;;5.30;99.90;;;;;;5028276;28;20023;-63
2023/04/13 04:50:43;;;;;;;;;;;5.30;99.90;;;;;;5030004;28;20044;-63
2023/04/13 04:53:15;;;;;;;;;;;5.20;99.90;;;;;;5038120;28;20274;-64
2023/04/13 04:55:48;;;;;;;;;;;5.20;99.90;;;;;;5010993;28;19925;-63
2023/04/13 04:58:38;;;;;;;;;;;5.30;99.90;;;;;;5033064;28;19924;-63
2023/04/13 05:01:11;;;;;;;;;;;5.20;99.90;;;;;;5016373;28;19920;-63
2023/04/13 05:03:44;;;;;;;;;;;5.30;99.90;;;;;;5026516;28;19947;-63
2023/04/13 05:06:31;;;;;;;;;;;5.30;99.90;;;;;;5030343;28;19956;-63
2023/04/13 05:09:03;;;;;;;;;;;5.30;99.90;;;;;;5028925;28;19974;-63
2023/04/13 05:11:37;;;;;;;;;;;5.30;99.90;;;;;;5032347;28;19929;-64
2023/04/13 05:14:10;;;;;;;;;;;5.30;99.90;;;;;;5025390;28;19921;-64
2023/04/13 05:16:42;;;;;;;;;;;5.30;99.90;;;;;;5043286;28;20296;-63
2023/04/13 05:19:36;;;;;;;;;;;5.30;99.90;;;;;;5022123;28;19921;-64
2023/04/13 05:22:28;;;;;;;;;;;5.40;99.90;;;;;;5029924;28;19987;-63
2023/04/13 05:25:03;;;;;;;;;;;5.30;99.90;;;;;;5031635;28;19928;-63
2023/04/13 05:27:36;;;;;;;;;;;5.30;99.90;;;;;;5025913;28;20012;-63
2023/04/13 05:30:08;;;;;;;;;;;5.40;99.90;;;;;;5014900;28;19928;-64
2023/04/13 05:32:42;;;;;;;;;;;5.30;99.90;;;;;;5014329;28;19925;-63
2023/04/13 05:35:14;;;;;;;;;;;5.30;99.90;;;;;;5028138;28;20015;-64
2023/04/13 05:37:45;;;;;;;;;;;5.30;99.90;;;;;;5046743;28;20400;-64
2023/04/13 05:40:21;;;;;;;;;;;5.30;99.90;;;;;;5043593;28;19927;-63
2023/04/13 05:42:53;;;;;;;;;;;5.30;99.90;;;;;;5034138;28;20498;-63
2023/04/13 05:45:28;;;;;;;;;;;5.40;99.90;;;;;;5040311;28;20011;-64
2023/04/13 05:48:01;;;;;;;;;;;5.40;99.90;;;;;;5035784;28;19929;-63
2023/04/13 05:50:33;;;;;;;;;;;5.40;99.90;;;;;;5044260;28;19925;-64
2023/04/13 05:53:00;;;;;;;;;;;5.40;99.90;;;;;;5034524;28;19928;-64
2023/04/13 05:55:42;;;;;;;;;;;5.40;99.90;;;;;;5020149;28;19924;-63
2023/04/13 05:58:09;;;;;;;;;;;5.50;99.90;;;;;;5029484;28;20023;-63
2023/04/13 06:00:42;;;;;;;;;;;5.50;99.90;;;;;;5035400;28;20413;-63
2023/04/13 06:03:20;;;;;;;;;;;5.50;99.90;;;;;;5018404;28;19953;-63
2023/04/13 06:05:47;;;;;;;;;;;5.50;99.90;;;;;;5035652;28;19968;-63
2023/04/13 06:08:20;;;;;;;;;;;5.50;99.90;;;;;;5017659;28;19925;-63
2023/04/13 06:10:53;;;;;;;;;;;5.60;99.90;;;;;;5039069;28;19929;-63
2023/04/13 06:13:24;;;;;;;;;;;5.50;99.90;;;;;;5021524;28;19960;-63
2023/04/13 06:15:57;;;;;;;;;;;5.60;99.90;;;;;;5034193;28;19924;-63
2023/04/13 06:18:29;;;;;;;;;;;5.60;99.90;;;;;;5030852;28;19936;-64
2023/04/13 06:21:01;;;;;;;;;;;5.70;99.90;;;;;;5047773;28;19929;-63
2023/04/13 06:23:33;;;;;;;;;;;5.70;99.90;;;;;;5034892;28;19921;-63
2023/04/13 06:26:16;;;;;;;;;;;5.70;99.90;;;;;;5042380;28;19951;-63
2023/04/13 06:28:53;;;;;;;;;;;5.70;99.90;;;;;;5016880;28;19921;-63
2023/04/13 06:31:26;;;;;;;;;;;5.70;99.90;;;;;;5032620;28;20736;-64
2023/04/13 06:33:55;;;;;;;;;;;5.70;99.90;;;;;;5035487;28;20309;-64
2023/04/13 06:36:32;;;;;;;;;;;5.80;99.90;;;;;;5032572;28;19925;-63
2023/04/13 06:39:04;;;;;;;;;;;5.80;99.90;;;;;;5048311;28;19929;-63
2023/04/13 06:41:36;;;;;;;;;;;5.90;99.90;;;;;;5044375;28;19921;-63
2023/04/13 06:44:13;;;;;;;;;;;5.90;99.90;;;;;;5033746;28;20019;-63
2023/04/13 06:46:51;;;;;;;;;;;5.90;99.90;;;;;;5032130;28;19924;-63
2023/04/13 06:49:19;;;;;;;;;;;5.90;99.90;;;;;;5032537;28;19928;-63
2023/04/13 06:51:51;;;;;;;;;;;5.80;99.90;;;;;;5020576;28;20388;-63
2023/04/13 06:54:18;;;;;;;;;;;5.90;99.90;;;;;;5034402;28;19920;-63
2023/04/13 06:56:49;;;;;;;;;;;6.00;99.90;;;;;;5031565;28;19921;-63
2023/04/13 06:59:21;;;;;;;;;;;6.00;99.90;;;;;;5034410;28;19925;-64
2023/04/13 07:01:53;;;;;;;;;;;6.00;99.90;;;;;;5016814;28;20016;-63
2023/04/13 07:04:20;;;;;;;;;;;6.10;99.90;;;;;;5033462;28;19932;-63
2023/04/13 07:06:47;;;;;;;;;;;6.10;99.90;;;;;;5033481;28;20567;-64
2023/04/13 07:09:15;;;;;;;;;;;6.00;99.90;;;;;;5031328;28;19921;-63
2023/04/13 07:11:47;;;;;;;;;;;6.00;99.90;;;;;;5033874;28;19999;-63
2023/04/13 07:14:15;;;;;;;;;;;6.00;99.90;;;;;;5030329;28;19920;-64
2023/04/13 07:16:49;;;;;;;;;;;6.00;99.90;;;;;;5034063;28;19924;-64
2023/04/13 07:19:22;;;;;;;;;;;6.10;99.90;;;;;;5025251;28;19960;-63
2023/04/13 07:21:54;;;;;;;;;;;6.20;99.90;;;;;;5033884;28;19928;-63
2023/04/13 07:24:27;;;;;;;;;;;6.10;99.90;;;;;;5034083;28;19947;-63
2023/04/13 07:27:02;;;;;;;;;;;6.20;99.90;;;;;;5045292;28;19967;-64
2023/04/13 07:29:29;;;;;;;;;;;6.20;99.90;;;;;;5033602;28;19927;-64
2023/04/13 07:32:05;;;;;;;;;;;6.20;99.90;;;;;;5028384;28;19936;-63
2023/04/13 07:34:37;;;;;;;;;;;6.30;99.90;;;;;;5014012;28;19921;-63
2023/04/13 07:37:10;;;;;;;;;;;6.40;99.90;;;;;;5024830;28;20021;-63
2023/04/13 07:39:42;;;;;;;;;;;6.40;99.90;;;;;;5013546;28;20027;-63
2023/04/13 07:42:15;;;;;;;;;;;6.50;99.90;;;;;;5024725;28;20032;-63
2023/04/13 07:44:53;;;;;;;;;;;6.50;99.90;;;;;;5018031;28;19932;-63
2023/04/13 07:47:28;;;;;;;;;;;6.40;99.90;;;;;;5051022;28;20018;-64
2023/04/13 07:50:06;;;;;;;;;;;6.40;99.90;;;;;;5044580;28;19975;-64
2023/04/13 07:52:38;;;;;;;;;;;6.50;99.90;;;;;;5027396;28;19920;-63
2023/04/13 07:55:10;;;;;;;;;;;6.40;99.90;;;;;;5023369;28;19927;-63
2023/04/13 07:57:46;;;;;;;;;;;6.40;99.90;;;;;;5027809;28;19932;-63
2023/04/13 08:00:13;;;;;;;;;;;6.50;99.90;;;;;;5030566;23;19928;-63
2023/04/13 08:02:49;;;;;;;;;;;6.50;99.90;;;;;;5017016;28;19922;-63
2023/04/13 08:05:22;;;;;;;;;;;6.70;99.90;;;;;;5020914;28;19928;-63
2023/04/13 08:07:53;;;;;;;;;;;6.80;99.90;;;;;;5028061;28;19922;-63
2023/04/13 08:10:25;;;;;;;;;;;6.80;99.90;;;;;;5020682;28;20304;-63
2023/04/13 08:13:01;;;;;;;;;;;6.80;99.90;;;;;;5015718;28;20392;-64
2023/04/13 08:15:33;;;;;;;;;;;6.90;99.90;;;;;;5034679;28;19921;-63
2023/04/13 08:18:05;;;;;;;;;;;6.90;99.90;;;;;;5018476;28;19921;-63
2023/04/13 08:20:34;;;;;;;;;;;7.00;99.90;;;;;;5023022;28;19920;-64
2023/04/13 08:23:06;;;;;;;;;;;7.10;99.90;;;;;;5023585;28;19964;-64
2023/04/13 08:25:39;;;;;;;;;;;7.20;99.90;;;;;;5027007;28;19921;-63
2023/04/13 08:28:12;;;;;;;;;;;7.30;99.90;;;;;;5047524;28;20270;-63
2023/04/13 08:30:44;;;;;;;;;;;7.40;99.90;;;;;;5033544;28;19927;-63
2023/04/13 08:33:17;;;;;;;;;;;7.50;99.90;;;;;;5017433;28;20019;-63
2023/04/13 08:35:49;;;;;;;;;;;7.50;99.90;;;;;;5046453;28;19929;-63
2023/04/13 08:38:18;;;;;;;;;;;7.50;99.90;;;;;;5044779;28;20295;-63
2023/04/13 08:40:51;;;;;;;;;;;7.50;99.90;;;;;;5026860;28;19928;-63
2023/04/13 08:43:28;;;;;;;;;;;7.60;99.90;;;;;;5026251;28;19924;-63
2023/04/13 08:46:00;;;;;;;;;;;7.80;99.90;;;;;;5031026;28;19921;-63
2023/04/13 08:48:42;;;;;;;;;;;7.90;99.90;;;;;;5030595;28;19929;-63
2023/04/13 08:51:09;;;;;;;;;;;7.90;99.90;;;;;;5042596;28;19940;-63
2023/04/13 08:53:37;;;;;;;;;;;7.90;99.90;;;;;;5026462;28;19924;-63
2023/04/13 08:56:10;;;;;;;;;;;7.90;99.90;;;;;;5041148;28;20272;-63
2023/04/13 08:58:42;;;;;;;;;;;7.90;99.90;;;;;;5040771;28;20074;-64
2023/04/13 09:01:15;;;;;;;;;;;7.90;99.90;;;;;;5047530;28;19921;-63
2023/04/13 09:03:52;;;;;;;;;;;7.90;99.90;;;;;;5031634;28;19920;-63
2023/04/13 09:06:27;;;;;;;;;;;8.00;99.90;;;;;;5010957;28;19975;-63
2023/04/13 09:09:02;;;;;;;;;;;7.90;99.90;;;;;;5044309;28;19921;-64
2023/04/13 09:11:35;;;;;;;;;;;7.90;99.90;;;;;;5048114;28;19974;-63
2023/04/13 09:14:07;;;;;;;;;;;7.90;99.90;;;;;;5024686;28;19927;-63
2023/04/13 09:16:41;;;;;;;;;;;8.00;99.90;;;;;;5044232;28;19928;-63
2023/04/13 09:19:14;;;;;;;;;;;8.00;99.90;;;;;;5028592;28;19994;-63
2023/04/13 09:21:47;;;;;;;;;;;8.00;99.90;;;;;;5045167;28;19928;-63
2023/04/13 09:24:19;;;;;;;;;;;8.00;99.90;;;;;;5030977;28;19936;-63
2023/04/13 09:26:46;;;;;;;;;;;8.00;99.90;;;;;;5047331;28;19920;-63
2023/04/13 09:29:19;;;;;;;;;;;8.00;99.90;;;;;;5032017;28;19920;-63
2023/04/13 09:31:51;;;;;;;;;;;8.20;99.90;;;;;;5042167;28;19924;-64
2023/04/13 09:34:27;;;;;;;;;;;8.30;99.90;;;;;;5047033;28;19921;-63
2023/04/13 09:37:10;;;;;;;;;;;8.50;99.90;;;;;;5036024;28;20338;-63
2023/04/13 09:39:36;;;;;;;;;;;8.60;99.90;;;;;;5043007;28;19927;-63
2023/04/13 09:42:09;;;;;;;;;;;8.60;99.90;;;;;;5028664;28;20402;-63
2023/04/13 09:44:41;;;;;;;;;;;8.70;99.90;;;;;;5045117;28;19936;-63
2023/04/13 09:47:08;;;;;;;;;;;8.90;99.90;;;;;;5043403;28;20373;-63
2023/04/13 09:49:40;;;;;;;;;;;8.80;99.90;;;;;;5044987;28;19925;-63
2023/04/13 09:52:21;;;;;;;;;;;8.90;99.90;;;;;;5045717;28;20397;-63
2023/04/13 09:54:54;;;;;;;;;;;8.90;99.90;;;;;;5021141;28;19925;-63
2023/04/13 09:57:27;;;;;;;;;;;8.90;99.90;;;;;;5043545;28;19939;-63
2023/04/13 10:00:13;;;;;;;;;;;8.90;99.90;;;;;;5027780;28;20450;-63
2023/04/13 10:02:49;;;;;;;;;;;8.90;99.90;;;;;;5010584;28;19951;-63
2023/04/13 10:05:24;;;;;;;;;;;9.00;99.90;;;;;;5030837;28;20312;-63
2023/04/13 10:07:56;;;;;;;;;;;9.00;99.90;;;;;;5040005;28;19921;-63
2023/04/13 10:10:27;;;;;;;;;;;9.10;99.90;;;;;;5027366;28;19925;-64
2023/04/13 10:13:01;;;;;;;;;;;9.10;99.90;;;;;;5030141;28;19924;-64
2023/04/13 10:15:53;;;;;;;;;;;9.10;99.90;;;;;;5046515;28;19921;-63
2023/04/13 10:18:37;;;;;;;;;;;9.00;99.90;;;;;;5023972;28;20016;-64
2023/04/13 10:21:10;;;;;;;;;;;8.80;99.90;;;;;;5030168;28;19921;-63
2023/04/13 10:23:42;;;;;;;;;;;8.60;99.90;;;;;;5040670;28;19921;-63
2023/04/13 10:26:13;;;;;;;;;;;8.50;99.90;;;;;;5041445;28;19920;-63
2023/04/13 10:28:48;;;;;;;;;;;8.40;99.90;;;;;;5044011;28;19944;-63
2023/04/13 10:31:20;;;;;;;;;;;8.20;99.90;;;;;;5044867;28;19950;-63
2023/04/13 10:33:54;;;;;;;;;;;8.20;99.90;;;;;;5045914;28;19936;-63
2023/04/13 10:36:33;;;;;;;;;;;8.20;99.90;;;;;;5046248;28;19921;-63
2023/04/13 10:39:07;;;;;;;;;;;8.20;99.90;;;;;;5046203;28;19920;-63
2023/04/13 10:41:38;;;;;;;;;;;8.30;99.90;;;;;;5033714;28;19927;-64
2023/04/13 10:44:10;;;;;;;;;;;8.30;99.90;;;;;;5025816;28;19933;-63
2023/04/13 10:46:36;;;;;;;;;;;8.30;99.90;;;;;;5047006;28;19927;-63
2023/04/13 10:49:03;;;;;;;;;;;8.30;99.90;;;;;;5042069;28;19927;-64
2023/04/13 10:51:39;;;;;;;;;;;8.40;99.90;;;;;;5018833;28;19921;-64
2023/04/13 10:54:12;;;;;;;;;;;8.40;99.90;;;;;;5045034;28;19987;-63
2023/04/13 10:56:54;;;;;;;;;;;8.50;99.90;;;;;;5034612;28;20023;-63
2023/04/13 10:59:55;;;;;;;;;;;8.50;99.90;;;;;;5046206;28;20356;-64
2023/04/13 11:02:30;;;;;;;;;;;8.60;99.90;;;;;;5046704;28;19927;-64
2023/04/13 11:05:02;;;;;;;;;;;8.50;99.90;;;;;;5046697;28;19921;-63
2023/04/13 11:07:37;;;;;;;;;;;8.50;99.90;;;;;;5042896;28;19925;-63
2023/04/13 11:10:09;;;;;;;;;;;8.50;99.90;;;;;;5028316;28;19991;-63
2023/04/13 11:12:47;;;;;;;;;;;8.50;99.90;;;;;;5044138;28;19931;-63
2023/04/13 11:15:29;;;;;;;;;;;8.50;99.90;;;;;;5031528;28;20343;-63
2023/04/13 11:18:02;;;;;;;;;;;8.50;99.90;;;;;;5031510;28;20320;-64
2023/04/13 11:20:33;;;;;;;;;;;8.50;99.90;;;;;;5046962;28;20594;-64
2023/04/13 11:23:02;;;;;;;;;;;8.60;99.90;;;;;;5044944;28;19925;-64
2023/04/13 11:25:34;;;;;;;;;;;8.70;99.90;;;;;;5033507;28;20355;-63
2023/04/13 11:28:07;;;;;;;;;;;8.70;99.90;;;;;;5043680;28;19967;-64
2023/04/13 11:30:39;;;;;;;;;;;8.80;99.90;;;;;;5042961;28;19929;-63
2023/04/13 11:33:11;;;;;;;;;;;8.90;99.90;;;;;;5040786;28;19929;-63
2023/04/13 11:35:43;;;;;;;;;;;9.00;99.90;;;;;;5030799;28;19929;-63
2023/04/13 11:38:16;;;;;;;;;;;9.10;99.90;;;;;;5027441;28;20472;-63
2023/04/13 11:40:44;;;;;;;;;;;9.20;99.90;;;;;;5046948;28;19928;-63
2023/04/13 11:43:17;;;;;;;;;;;9.30;99.90;;;;;;5014115;28;20467;-64
2023/04/13 11:45:49;;;;;;;;;;;9.30;99.90;;;;;;5048064;28;19928;-63
2023/04/13 11:48:21;;;;;;;;;;;9.30;99.90;;;;;;5047506;28;19924;-63
2023/04/13 11:50:53;;;;;;;;;;;9.20;99.90;;;;;;5030650;28;19938;-63
2023/04/13 11:53:26;;;;;;;;;;;9.00;99.90;;;;;;5048749;28;19932;-63
2023/04/13 11:55:58;;;;;;;;;;;9.10;99.90;;;;;;5047225;28;20455;-63
2023/04/13 11:58:30;;;;;;;;;;;9.10;99.90;;;;;;5029869;28;19921;-63
2023/04/13 12:01:06;;;;;;;;;;;9.20;99.90;;;;;;5029649;28;19925;-65
2023/04/13 12:03:33;;;;;;;;;;;9.30;99.90;;;;;;5030542;28;19925;-63
2023/04/13 12:06:06;;;;;;;;;;;9.30;99.90;;;;;;5027706;28;19924;-64
2023/04/13 12:08:37;;;;;;;;;;;9.30;99.90;;;;;;5043288;28;19921;-63
2023/04/13 12:11:09;;;;;;;;;;;9.20;99.90;;;;;;5044713;28;19928;-64
2023/04/13 12:13:48;;;;;;;;;;;9.20;99.90;;;;;;5042528;28;19928;-64
2023/04/13 12:16:28;;;;;;;;;;;9.10;99.90;;;;;;5033335;28;19979;-63
2023/04/13 12:19:10;;;;;;;;;;;9.10;99.90;;;;;;5024824;28;19929;-63
2023/04/13 12:21:53;;;;;;;;;;;9.00;99.90;;;;;;5041004;28;19928;-62
2023/04/13 12:24:32;;;;;;;;;;;8.90;99.90;;;;;;5043353;28;19921;-64
2023/04/13 12:27:04;;;;;;;;;;;8.80;99.90;;;;;;5025614;28;19920;-63
2023/04/13 12:29:37;;;;;;;;;;;8.90;99.90;;;;;;5044748;28;19920;-64
2023/04/13 12:32:12;;;;;;;;;;;8.90;99.90;;;;;;5045958;28;19925;-63
2023/04/13 12:34:44;;;;;;;;;;;9.10;99.90;;;;;;5042213;28;19932;-64
2023/04/13 12:37:16;;;;;;;;;;;9.20;99.90;;;;;;5044830;28;19921;-63
2023/04/13 12:39:47;;;;;;;;;;;9.20;99.90;;;;;;5043844;28;19951;-64
2023/04/13 12:42:14;;;;;;;;;;;9.10;99.90;;;;;;5041992;28;20303;-63
2023/04/13 12:44:46;;;;;;;;;;;9.00;99.90;;;;;;5043090;28;20494;-63
2023/04/13 12:47:18;;;;;;;;;;;9.10;99.90;;;;;;5045687;28;19967;-64
2023/04/13 12:49:50;;;;;;;;;;;9.00;99.90;;;;;;5046761;28;19990;-64
2023/04/13 12:52:16;;;;;;;;;;;9.00;99.90;;;;;;5047455;28;19921;-64
2023/04/13 12:54:49;;;;;;;;;;;9.10;99.90;;;;;;5031355;28;19925;-63
2023/04/13 12:57:21;;;;;;;;;;;9.10;99.90;;;;;;5049918;28;20355;-63
2023/04/13 12:59:53;;;;;;;;;;;9.10;99.90;;;;;;5043766;28;19925;-63
2023/04/13 13:02:26;;;;;;;;;;;9.10;99.90;;;;;;5030518;28;19939;-64
2023/04/13 13:04:58;;;;;;;;;;;9.00;99.90;;;;;;5033122;28;19921;-63
2023/04/13 13:07:30;;;;;;;;;;;8.90;99.90;;;;;;5042191;28;20349;-64
2023/04/13 13:10:02;;;;;;;;;;;9.00;99.90;;;;;;5028805;28;20028;-63
2023/04/13 13:12:29;;;;;;;;;;;9.00;99.90;;;;;;5029749;28;20382;-63
2023/04/13 13:15:02;;;;;;;;;;;8.90;99.90;;;;;;5030442;28;19921;-64
2023/04/13 13:17:28;;;;;;;;;;;8.90;99.90;;;;;;5028688;28;19921;-63
2023/04/13 13:20:00;;;;;;;;;;;9.00;99.90;;;;;;5029858;28;19920;-63
2023/04/13 13:22:33;;;;;;;;;;;9.00;99.90;;;;;;5042692;28;19928;-63
2023/04/13 13:25:05;;;;;;;;;;;9.10;99.90;;;;;;5042829;28;19925;-63
2023/04/13 13:27:37;;;;;;;;;;;9.10;99.90;;;;;;5020526;28;19928;-63
2023/04/13 13:30:09;;;;;;;;;;;9.10;99.90;;;;;;5043050;28;19933;-63
2023/04/13 13:32:41;;;;;;;;;;;9.20;99.90;;;;;;5026381;28;19921;-64
2023/04/13 13:35:13;;;;;;;;;;;9.30;99.90;;;;;;5040126;28;20339;-64
2023/04/13 13:37:45;;;;;;;;;;;9.20;99.90;;;;;;5028250;28;19931;-64
2023/04/13 13:40:12;;;;;;;;;;;9.20;99.90;;;;;;5044998;28;19925;-64
2023/04/13 13:42:44;;;;;;;;;;;9.10;99.90;;;;;;5026027;28;20363;-64
2023/04/13 13:45:16;;;;;;;;;;;9.20;99.90;;;;;;5023755;28;20000;-64
2023/04/13 13:47:54;;;;;;;;;;;9.20;99.90;;;;;;5045592;28;19927;-64
2023/04/13 13:50:34;;;;;;;;;;;9.20;99.90;;;;;;5030491;28;19960;-64
2023/04/13 13:53:07;;;;;;;;;;;9.30;99.90;;;;;;5027469;28;19921;-63
2023/04/13 13:55:40;;;;;;;;;;;9.30;99.90;;;;;;5034700;28;20403;-64
2023/04/13 13:58:12;;;;;;;;;;;9.30;99.90;;;;;;5048515;28;19971;-63
2023/04/13 14:00:44;;;;;;;;;;;9.50;99.90;;;;;;5050546;28;19974;-63
2023/04/13 14:03:16;;;;;;;;;;;9.50;99.90;;;;;;5052938;28;19967;-63
2023/04/13 14:05:47;;;;;;;;;;;9.50;99.90;;;;;;5029784;28;19924;-63
2023/04/13 14:08:19;;;;;;;;;;;9.50;99.90;;;;;;5041731;28;20058;-63
2023/04/13 14:10:52;;;;;;;;;;;9.40;99.90;;;;;;5041896;28;20389;-64
2023/04/13 14:13:30;;;;;;;;;;;9.50;99.90;;;;;;5001773;28;19921;-64
2023/04/13 14:16:02;;;;;;;;;;;9.40;99.90;;;;;;5033219;28;20308;-64
2023/04/13 14:18:35;;;;;;;;;;;9.20;99.90;;;;;;5038326;28;19921;-64
2023/04/13 14:21:12;;;;;;;;;;;9.20;99.90;;;;;;5041302;28;19927;-64
2023/04/13 14:23:46;;;;;;;;;;;9.20;99.90;;;;;;5048330;28;19924;-64
2023/04/13 14:26:18;;;;;;;;;;;9.10;99.90;;;;;;5031722;28;19920;-64
2023/04/13 14:28:50;;;;;;;;;;;9.20;99.90;;;;;;5048643;28;19921;-64
2023/04/13 14:31:22;;;;;;;;;;;9.20;99.90;;;;;;5040875;28;19968;-64
2023/04/13 14:33:53;;;;;;;;;;;9.30;99.90;;;;;;5044087;28;20392;-64
2023/04/13 14:36:25;;;;;;;;;;;9.30;99.90;;;;;;5049848;28;19925;-64
2023/04/13 14:38:53;;;;;;;;;;;9.20;99.90;;;;;;5019646;28;19942;-64
2023/04/13 14:41:20;;;;;;;;;;;9.30;99.90;;;;;;5042794;28;19960;-63
2023/04/13 14:43:52;;;;;;;;;;;9.40;99.90;;;;;;5031592;28;19976;-64
2023/04/13 14:46:25;;;;;;;;;;;9.40;99.90;;;;;;5030299;28;19947;-64
2023/04/13 14:48:52;;;;;;;;;;;9.30;99.90;;;;;;5049802;28;20389;-64
2023/04/13 14:51:24;;;;;;;;;;;9.40;99.90;;;;;;5029172;28;20514;-64
2023/04/13 14:53:56;;;;;;;;;;;9.30;99.90;;;;;;5026082;28;20281;-64
2023/04/13 14:56:24;;;;;;;;;;;9.30;99.90;;;;;;5039074;28;19925;-64
2023/04/13 14:58:56;;;;;;;;;;;9.30;99.90;;;;;;5027831;28;20385;-64
2023/04/13 15:01:28;;;;;;;;;;;9.30;99.90;;;;;;5041611;28;19959;-64
2023/04/13 15:04:00;;;;;;;;;;;9.40;99.90;;;;;;5048506;28;19924;-63
2023/04/13 15:06:34;;;;;;;;;;;9.30;99.90;;;;;;5020309;28;19963;-64